Terminal Aerodrome Forecast
Issued by NWS Wakefield, VA

Home | Current Version | Previous Version | Text Only | Print | Product List | Glossary On
Versions: 1 2 3 4 5 6 7 8 9 10 11 12 13 14 15 16 17 18 19 20 21 22 23
000
FTUS41 KAKQ 041136
TAFECG
TAF
KECG 041136Z 0412/0512 28005KT 5SM BR SKC
      TEMPO 0412/0413 4SM BR
     FM041300 34005KT P6SM SCT250
     FM041600 05010KT P6SM SCT050 SCT250
     FM050600 02006KT 4SM BR BKN050=

USA.gov is the U.S. government's official web portal to all federal, state and local government web resources and services.